createdAt,value
2019-03-23T00:00:53.852Z,77.00
2019-03-23T00:03:25.833Z,76.37
2019-03-23T00:05:58.404Z,76.47
2019-03-23T00:08:31.292Z,77.24
2019-03-23T00:11:03.074Z,78.75
2019-03-23T00:13:35.038Z,77.94
2019-03-23T00:16:08.900Z,79.90
2019-03-23T00:18:41.942Z,80.01
2019-03-23T00:21:12.522Z,79.65
2019-03-23T00:23:43.966Z,79.92
2019-03-23T00:28:53.115Z,79.20
2019-03-23T00:31:24.515Z,79.13
2019-03-23T00:33:53.926Z,79.34
2019-03-23T00:36:27.722Z,78.97
2019-03-23T00:39:00.944Z,79.19
2019-03-23T00:41:30.141Z,79.09
2019-03-23T00:44:07.569Z,79.37
2019-03-23T00:46:38.474Z,79.53
2019-03-23T00:49:10.375Z,80.44
2019-03-23T00:51:40.370Z,80.34
2019-03-23T00:54:10.055Z,80.01
2019-03-23T00:56:40.166Z,80.12
2019-03-23T00:59:10.413Z,79.76
2019-03-23T01:01:45.968Z,79.53
2019-03-23T01:04:10.534Z,81.36
2019-03-23T01:06:51.729Z,82.33
2019-03-23T01:09:17.039Z,81.46
2019-03-23T01:11:50.023Z,80.95
2019-03-23T01:14:19.707Z,81.27
2019-03-23T01:16:51.391Z,80.64
2019-03-23T01:19:21.580Z,80.54
2019-03-23T01:21:56.761Z,79.36
2019-03-23T01:24:28.893Z,80.36
2019-03-23T01:26:59.034Z,80.00
2019-03-23T01:29:31.064Z,79.47
2019-03-23T01:31:59.385Z,81.20
2019-03-23T01:34:33.077Z,81.92
2019-03-23T01:37:04.105Z,83.28
2019-03-23T01:39:35.041Z,83.27
2019-03-23T01:42:04.049Z,82.39
2019-03-23T01:44:33.041Z,80.27
2019-03-23T01:47:04.644Z,81.14
2019-03-23T01:49:33.668Z,81.93
2019-03-23T01:52:17.980Z,81.67
2019-03-23T01:57:27.723Z,81.62
2019-03-23T02:00:03.696Z,81.43
2019-03-23T02:02:32.623Z,81.11
2019-03-23T02:05:04.253Z,81.50
2019-03-23T02:07:36.292Z,82.30
2019-03-23T02:10:09.745Z,84.62
2019-03-23T02:12:40.926Z,84.29
2019-03-23T02:15:11.671Z,84.79
2019-03-23T02:17:41.530Z,84.60
2019-03-23T02:20:12.236Z,84.54
2019-03-23T02:22:44.070Z,84.51
2019-03-23T02:25:15.586Z,83.09
2019-03-23T02:27:45.908Z,82.93
2019-03-23T02:30:15.844Z,81.00
2019-03-23T02:32:50.079Z,79.66
2019-03-23T02:35:16.101Z,80.51
2019-03-23T02:37:47.377Z,81.22
2019-03-23T02:40:22.076Z,79.87
2019-03-23T02:42:49.991Z,81.24
2019-03-23T02:45:20.588Z,81.98
2019-03-23T02:47:51.696Z,80.42
2019-03-23T02:50:21.814Z,81.58
2019-03-23T02:52:51.403Z,80.59
2019-03-23T02:55:21.605Z,81.83
2019-03-23T02:57:54.976Z,83.10
2019-03-23T03:00:27.573Z,84.78
2019-03-23T03:02:55.916Z,85.19
2019-03-23T03:05:25.088Z,85.41
2019-03-23T03:07:55.229Z,84.79
2019-03-23T03:10:37.507Z,84.07
2019-03-23T03:13:08.044Z,84.22
2019-03-23T03:15:43.991Z,84.37
2019-03-23T03:18:14.238Z,84.27
2019-03-23T03:20:44.266Z,84.30
2019-03-23T03:23:14.894Z,83.63
2019-03-23T03:25:48.445Z,82.68
2019-03-23T03:28:22.802Z,82.86
2019-03-23T03:30:54.534Z,82.86
2019-03-23T03:33:25.743Z,83.38
2019-03-23T03:35:57.909Z,82.59
2019-03-23T03:38:29.749Z,82.74
2019-03-23T03:43:36.981Z,83.13
2019-03-23T03:46:04.786Z,82.70
2019-03-23T03:48:38.731Z,83.62
2019-03-23T03:51:08.480Z,84.60
2019-03-23T03:53:39.955Z,84.40
2019-03-23T03:56:10.151Z,83.83
2019-03-23T03:58:42.524Z,83.49
2019-03-23T04:01:12.155Z,83.51
2019-03-23T04:03:42.295Z,83.22
2019-03-23T04:06:12.479Z,81.59
2019-03-23T04:08:43.457Z,82.61
2019-03-23T04:11:15.393Z,83.21
2019-03-23T04:13:46.245Z,82.34
2019-03-23T04:16:17.273Z,82.30
2019-03-23T04:18:48.503Z,82.35
2019-03-23T04:21:18.964Z,82.04
2019-03-23T04:23:53.114Z,80.65
2019-03-23T04:26:29.342Z,81.69
2019-03-23T04:29:00.110Z,81.86
2019-03-23T04:31:31.406Z,82.07
2019-03-23T04:34:02.608Z,82.16
2019-03-23T04:39:12.510Z,82.71
2019-03-23T04:41:42.424Z,82.91
2019-03-23T04:44:15.587Z,82.53
2019-03-23T04:46:46.441Z,82.91
2019-03-23T04:49:17.410Z,81.53
2019-03-23T04:51:53.219Z,80.34
2019-03-23T04:54:21.681Z,81.77
2019-03-23T04:56:59.233Z,81.23
2019-03-23T04:59:29.931Z,82.07
2019-03-23T05:02:00.463Z,82.66
2019-03-23T05:04:30.138Z,81.96
2019-03-23T05:06:59.795Z,81.79
2019-03-23T05:09:38.165Z,82.10
2019-03-23T05:12:13.539Z,82.98
2019-03-23T05:14:49.966Z,83.06
2019-03-23T05:17:18.765Z,83.04
2019-03-23T05:19:49.712Z,83.06
2019-03-23T05:22:21.881Z,82.73
2019-03-23T05:24:52.547Z,82.78
2019-03-23T05:27:23.277Z,82.12
2019-03-23T05:29:57.011Z,82.30
2019-03-23T05:32:26.081Z,80.76
2019-03-23T05:34:56.799Z,81.39
2019-03-23T05:37:33.508Z,82.09
2019-03-23T05:40:04.281Z,81.91
2019-03-23T05:42:34.211Z,81.49
2019-03-23T05:47:44.302Z,82.10
2019-03-23T05:50:13.542Z,81.92
2019-03-23T05:52:43.606Z,81.69
2019-03-23T05:58:05.465Z,82.42
2019-03-23T06:00:36.406Z,82.81
2019-03-23T06:03:07.061Z,82.97
2019-03-23T06:05:38.349Z,81.99
2019-03-23T06:08:08.360Z,81.87
2019-03-23T06:10:39.346Z,81.32
2019-03-23T06:13:10.257Z,80.42
2019-03-23T06:15:47.110Z,81.60
2019-03-23T06:18:20.730Z,81.13
2019-03-23T06:20:51.815Z,81.74
2019-03-23T06:23:28.237Z,82.01
2019-03-23T06:25:58.226Z,82.44
2019-03-23T06:28:31.781Z,83.00
2019-03-23T06:31:05.112Z,82.86
2019-03-23T06:33:37.598Z,82.71
2019-03-23T06:36:08.689Z,82.68
2019-03-23T06:38:39.309Z,82.88
2019-03-23T06:41:08.419Z,82.91
2019-03-23T06:43:39.699Z,81.91
2019-03-23T06:46:10.198Z,80.42
2019-03-23T06:48:39.794Z,80.22
2019-03-23T06:51:10.787Z,79.83
2019-03-23T06:53:42.596Z,79.17
2019-03-23T06:56:15.143Z,78.79
2019-03-23T07:01:34.445Z,79.39
2019-03-23T07:04:07.400Z,79.18
2019-03-23T07:06:41.767Z,78.38
2019-03-23T07:09:16.245Z,77.24
2019-03-23T07:11:42.353Z,76.95
2019-03-23T07:14:13.677Z,75.83
2019-03-23T07:16:45.706Z,75.45
2019-03-23T07:19:14.561Z,74.63
2019-03-23T07:21:44.401Z,74.56
2019-03-23T07:24:18.439Z,74.25
2019-03-23T07:26:48.574Z,73.46
2019-03-23T07:29:17.741Z,74.50
2019-03-23T07:31:50.276Z,74.66
2019-03-23T07:34:21.970Z,74.34
2019-03-23T07:36:52.816Z,73.73
2019-03-23T07:39:28.076Z,73.76
2019-03-23T07:41:55.273Z,74.14
2019-03-23T07:44:26.333Z,73.82
2019-03-23T07:46:56.457Z,73.37
2019-03-23T07:49:27.726Z,71.92
2019-03-23T07:54:43.620Z,71.08
2019-03-23T07:57:18.636Z,71.39
2019-03-23T08:02:27.988Z,70.01
2019-03-23T08:04:57.709Z,69.92
2019-03-23T08:07:30.992Z,69.15
2019-03-23T08:10:01.437Z,67.26
2019-03-23T08:12:33.197Z,66.80
2019-03-23T08:15:02.821Z,67.67
2019-03-23T08:17:34.591Z,65.43
2019-03-23T08:20:03.691Z,66.13
2019-03-23T08:22:34.591Z,64.12
2019-03-23T08:27:46.446Z,63.82
2019-03-23T08:30:17.126Z,62.67
2019-03-23T08:32:50.101Z,63.83
2019-03-23T08:38:02.505Z,62.48
2019-03-23T08:40:35.782Z,61.13
2019-03-23T08:43:04.535Z,61.29
2019-03-23T08:45:39.494Z,61.16
2019-03-23T08:48:11.441Z,61.59
2019-03-23T08:50:42.643Z,62.49
2019-03-23T08:53:14.608Z,60.54
2019-03-23T08:55:45.077Z,59.38
2019-03-23T08:58:18.126Z,57.05
2019-03-23T09:00:51.816Z,57.29
2019-03-23T09:03:24.778Z,57.91
2019-03-23T09:05:55.135Z,57.09
2019-03-23T09:08:25.447Z,56.87
2019-03-23T09:10:56.438Z,56.50
2019-03-23T09:13:40.205Z,55.31
2019-03-23T09:15:58.545Z,54.30
2019-03-23T09:18:29.215Z,54.49
2019-03-23T09:20:58.515Z,53.86
2019-03-23T09:23:29.597Z,53.94
2019-03-23T09:25:58.414Z,52.27
2019-03-23T09:28:28.584Z,52.48
2019-03-23T09:30:57.498Z,51.58
2019-03-23T09:33:26.082Z,50.71
2019-03-23T09:35:56.171Z,48.70
2019-03-23T09:38:26.263Z,48.82
2019-03-23T09:40:59.078Z,50.38
2019-03-23T09:43:28.306Z,48.12
2019-03-23T09:45:59.751Z,46.90
2019-03-23T09:48:30.530Z,47.66
2019-03-23T09:51:00.458Z,48.34
2019-03-23T09:53:30.708Z,46.72
2019-03-23T09:56:02.058Z,47.97
2019-03-23T09:58:30.396Z,48.35
2019-03-23T10:01:00.133Z,48.01
2019-03-23T10:03:30.100Z,46.01
2019-03-23T10:05:59.142Z,45.69
2019-03-23T10:08:29.654Z,45.88
2019-03-23T10:11:00.489Z,46.78
2019-03-23T10:13:33.444Z,47.23
2019-03-23T10:16:04.208Z,45.59
2019-03-23T10:21:20.463Z,42.70
2019-03-23T10:23:50.408Z,43.95
2019-03-23T10:26:21.919Z,44.49
2019-03-23T10:28:52.659Z,44.36
2019-03-23T10:31:23.491Z,43.03
2019-03-23T10:33:55.238Z,43.29
2019-03-23T10:36:26.930Z,43.59
2019-03-23T10:38:58.226Z,42.96
2019-03-23T10:41:33.051Z,42.05
2019-03-23T10:44:03.497Z,45.57
2019-03-23T10:46:34.869Z,45.37
2019-03-23T10:49:06.194Z,43.61
2019-03-23T10:51:36.981Z,44.12
2019-03-23T10:54:06.767Z,47.17
2019-03-23T10:56:36.537Z,43.06
2019-03-23T10:59:07.749Z,41.75
2019-03-23T11:01:39.489Z,44.03
2019-03-23T11:06:54.230Z,43.68
2019-03-23T11:09:28.321Z,42.81
2019-03-23T11:11:57.336Z,42.52
2019-03-23T11:14:29.445Z,44.10
2019-03-23T11:17:02.288Z,46.17
2019-03-23T11:19:34.831Z,44.20
2019-03-23T11:22:05.533Z,44.51
2019-03-23T11:24:38.035Z,42.49
2019-03-23T11:27:07.741Z,43.43
2019-03-23T11:29:45.072Z,43.75
2019-03-23T11:32:16.314Z,44.92
2019-03-23T11:34:45.370Z,46.67
2019-03-23T11:37:15.578Z,46.09
2019-03-23T11:39:48.397Z,44.57
2019-03-23T11:42:18.292Z,45.01
2019-03-23T11:44:49.505Z,46.13
2019-03-23T11:47:19.305Z,42.25
2019-03-23T11:49:49.473Z,42.34
2019-03-23T11:52:23.378Z,44.91
2019-03-23T11:54:55.425Z,42.59
2019-03-23T11:57:29.945Z,45.39
2019-03-23T11:59:59.116Z,42.99
2019-03-23T12:02:33.741Z,43.26
2019-03-23T12:05:04.350Z,43.65
2019-03-23T12:07:36.744Z,42.90
2019-03-23T12:10:07.273Z,41.80
2019-03-23T12:12:39.943Z,41.90
2019-03-23T12:15:13.352Z,41.51
2019-03-23T12:20:21.569Z,40.97
2019-03-23T12:22:51.563Z,39.30
2019-03-23T12:28:06.370Z,40.80
2019-03-23T12:30:36.703Z,38.52
2019-03-23T12:33:07.407Z,41.02
2019-03-23T12:38:21.162Z,39.05
2019-03-23T12:40:52.395Z,40.46
2019-03-23T12:43:23.198Z,38.92
2019-03-23T12:45:54.464Z,39.32
2019-03-23T12:48:25.101Z,39.65
2019-03-23T12:50:57.212Z,40.95
2019-03-23T12:53:30.042Z,39.40
2019-03-23T12:56:01.592Z,39.08
2019-03-23T12:58:33.490Z,39.24
2019-03-23T13:01:02.170Z,38.93
2019-03-23T13:03:32.797Z,38.87
2019-03-23T13:06:04.643Z,39.14
2019-03-23T13:08:35.014Z,38.82
2019-03-23T13:11:06.660Z,38.38
2019-03-23T13:13:38.684Z,38.15
2019-03-23T13:16:10.783Z,38.56
2019-03-23T13:18:40.318Z,38.86
2019-03-23T13:21:09.734Z,39.91
2019-03-23T13:23:40.842Z,40.27
2019-03-23T13:26:14.719Z,40.24
2019-03-23T13:28:49.455Z,40.14
2019-03-23T13:31:22.464Z,39.07
2019-03-23T13:33:53.914Z,40.57
2019-03-23T13:36:24.114Z,38.39
2019-03-23T13:38:55.791Z,39.34
2019-03-23T13:41:41.194Z,39.81
2019-03-23T13:44:01.538Z,37.82
2019-03-23T13:46:33.399Z,39.83
2019-03-23T13:49:05.775Z,39.59
2019-03-23T13:51:36.424Z,39.42
2019-03-23T13:54:06.734Z,38.90
2019-03-23T13:56:40.248Z,39.90
2019-03-23T13:59:11.853Z,40.96
2019-03-23T14:01:47.798Z,38.76
2019-03-23T14:04:20.616Z,37.94
2019-03-23T14:06:56.594Z,38.25
2019-03-23T14:09:28.525Z,38.38
2019-03-23T14:12:00.514Z,37.80
2019-03-23T14:14:34.389Z,36.88
2019-03-23T14:17:05.450Z,39.82
2019-03-23T14:19:37.532Z,36.42
2019-03-23T14:22:09.679Z,37.86
2019-03-23T14:27:21.495Z,38.17
2019-03-23T14:29:51.861Z,37.32
2019-03-23T14:32:28.795Z,37.46
2019-03-23T14:34:58.358Z,38.36
2019-03-23T14:37:30.669Z,38.69
2019-03-23T14:40:02.506Z,37.99
2019-03-23T14:45:13.132Z,39.12
2019-03-23T14:47:44.768Z,38.03
2019-03-23T14:50:13.808Z,39.08
2019-03-23T14:52:42.639Z,40.44
2019-03-23T14:55:15.955Z,40.28
2019-03-23T14:57:42.966Z,37.89
2019-03-23T15:00:13.520Z,38.39
2019-03-23T15:02:46.947Z,39.75
2019-03-23T15:05:19.518Z,40.45
2019-03-23T15:07:50.484Z,41.07
2019-03-23T15:10:20.541Z,39.83
2019-03-23T15:12:52.938Z,40.84
2019-03-23T15:15:22.912Z,39.95
2019-03-23T15:17:57.152Z,40.61
2019-03-23T15:20:29.652Z,40.83
2019-03-23T15:22:58.505Z,40.15
2019-03-23T15:25:29.257Z,43.11
2019-03-23T15:28:00.308Z,43.40
2019-03-23T15:30:31.340Z,43.40
2019-03-23T15:33:02.548Z,42.64
2019-03-23T15:38:13.550Z,41.73
2019-03-23T15:40:42.645Z,42.36
2019-03-23T15:43:15.145Z,44.81
2019-03-23T15:45:45.516Z,43.37
2019-03-23T15:48:14.330Z,44.95
2019-03-23T15:53:26.598Z,44.72
2019-03-23T15:55:58.286Z,44.30
2019-03-23T15:58:29.340Z,45.90
2019-03-23T16:01:01.648Z,46.88
2019-03-23T16:03:35.688Z,46.44
2019-03-23T16:06:07.310Z,44.50
2019-03-23T16:08:39.498Z,45.57
2019-03-23T16:11:09.897Z,46.16
2019-03-23T16:13:40.637Z,45.55
2019-03-23T16:16:15.394Z,46.37
2019-03-23T16:21:25.550Z,48.91
2019-03-23T16:23:55.668Z,49.72
2019-03-23T16:26:24.744Z,48.70
2019-03-23T16:28:56.717Z,47.65
2019-03-23T16:31:25.636Z,49.80
2019-03-23T16:33:59.137Z,50.70
2019-03-23T16:36:30.651Z,49.43
2019-03-23T16:39:02.923Z,48.37
2019-03-23T16:41:32.385Z,49.31
2019-03-23T16:44:06.870Z,49.35
2019-03-23T16:46:37.992Z,50.41
2019-03-23T16:49:08.931Z,50.67
2019-03-23T16:51:38.235Z,50.04
2019-03-23T16:54:11.013Z,50.27
2019-03-23T16:56:40.215Z,50.23
2019-03-23T16:59:10.331Z,50.00
2019-03-23T17:01:45.466Z,50.85
2019-03-23T17:04:16.077Z,50.45
2019-03-23T17:06:46.860Z,52.27
2019-03-23T17:09:17.229Z,52.38
2019-03-23T17:11:48.822Z,55.42
2019-03-23T17:14:20.780Z,57.36
2019-03-23T17:16:56.012Z,57.67
2019-03-23T17:19:26.581Z,58.60
2019-03-23T17:21:57.698Z,59.20
2019-03-23T17:24:28.605Z,59.49
2019-03-23T17:26:59.198Z,60.46
2019-03-23T17:29:28.706Z,59.81
2019-03-23T17:32:02.279Z,61.28
2019-03-23T17:34:34.725Z,60.38
2019-03-23T17:37:09.958Z,61.01
2019-03-23T17:39:40.274Z,61.35
2019-03-23T17:45:01.044Z,62.30
2019-03-23T17:47:35.971Z,62.33
2019-03-23T17:50:05.573Z,62.80
2019-03-23T17:52:38.463Z,62.60
2019-03-23T17:55:08.686Z,63.52
2019-03-23T17:57:41.975Z,64.04
2019-03-23T18:00:16.642Z,64.71
2019-03-23T18:02:46.922Z,65.17
2019-03-23T18:05:21.118Z,65.91
2019-03-23T18:07:51.749Z,66.98
2019-03-23T18:10:23.103Z,66.29
2019-03-23T18:12:55.084Z,67.62
2019-03-23T18:18:06.971Z,68.75
2019-03-23T18:20:39.744Z,70.35
2019-03-23T18:23:10.179Z,69.41
2019-03-23T18:25:42.881Z,69.05
2019-03-23T18:28:17.714Z,69.33
2019-03-23T18:30:48.078Z,70.28
2019-03-23T18:33:19.250Z,71.26
2019-03-23T18:35:50.813Z,70.82
2019-03-23T18:38:19.998Z,70.66
2019-03-23T18:40:55.250Z,71.74
2019-03-23T18:43:27.679Z,70.80
2019-03-23T18:45:55.793Z,70.99
2019-03-23T18:48:28.064Z,71.34
2019-03-23T18:50:59.125Z,70.91
2019-03-23T18:53:32.193Z,71.15
2019-03-23T18:56:03.865Z,70.95
2019-03-23T18:58:34.300Z,71.69
2019-03-23T19:01:07.143Z,71.43
2019-03-23T19:03:36.487Z,70.98
2019-03-23T19:06:11.473Z,71.57
2019-03-23T19:08:42.726Z,70.46
2019-03-23T19:11:15.022Z,70.71
2019-03-23T19:13:47.993Z,71.48
2019-03-23T19:18:54.886Z,71.32
2019-03-23T19:21:22.734Z,71.36
2019-03-23T19:23:52.971Z,70.93
2019-03-23T19:26:24.205Z,71.21
2019-03-23T19:29:00.485Z,70.72
2019-03-23T19:31:31.408Z,70.94
2019-03-23T19:34:01.784Z,70.46
2019-03-23T19:36:35.962Z,70.72
2019-03-23T19:39:16.040Z,70.42
2019-03-23T19:41:44.800Z,70.89
2019-03-23T19:47:03.704Z,71.87
2019-03-23T19:49:37.993Z,71.64
2019-03-23T19:52:08.536Z,71.67
2019-03-23T19:54:38.842Z,71.45
2019-03-23T19:57:08.865Z,72.51
2019-03-23T19:59:38.779Z,72.51
2019-03-23T20:02:10.542Z,73.14
2019-03-23T20:04:40.502Z,72.84
2019-03-23T20:07:11.700Z,73.40
2019-03-23T20:09:44.057Z,73.44
2019-03-23T20:12:15.500Z,72.81
2019-03-23T20:14:49.534Z,72.94
2019-03-23T20:17:19.679Z,72.65
2019-03-23T20:22:29.516Z,73.23
2019-03-23T20:25:03.634Z,73.35
2019-03-23T20:27:35.965Z,74.08
2019-03-23T20:30:05.924Z,73.60
2019-03-23T20:32:35.428Z,74.58
2019-03-23T20:35:05.235Z,74.89
2019-03-23T20:40:17.738Z,74.29
2019-03-23T20:42:49.801Z,74.60
2019-03-23T20:45:29.107Z,74.20
2019-03-23T20:47:59.485Z,74.23
2019-03-23T20:50:29.069Z,74.90
2019-03-23T20:52:57.972Z,75.09
2019-03-23T20:55:30.849Z,75.21
2019-03-23T20:58:01.982Z,75.21
2019-03-23T21:00:30.847Z,75.20
2019-03-23T21:02:59.227Z,75.45
2019-03-23T21:05:34.489Z,75.80
2019-03-23T21:08:09.451Z,76.36
2019-03-23T21:10:41.309Z,76.08
2019-03-23T21:13:09.967Z,76.32
2019-03-23T21:15:44.933Z,76.95
2019-03-23T21:18:14.259Z,76.27
2019-03-23T21:20:45.889Z,76.68
2019-03-23T21:23:18.075Z,76.59
2019-03-23T21:25:51.712Z,76.26
2019-03-23T21:28:24.777Z,76.70
2019-03-23T21:30:58.701Z,76.10
2019-03-23T21:33:38.663Z,76.89
2019-03-23T21:36:04.417Z,76.79
2019-03-23T21:38:52.373Z,76.36
2019-03-23T21:41:12.317Z,75.98
2019-03-23T21:43:41.430Z,76.33
2019-03-23T21:46:11.411Z,76.17
2019-03-23T21:48:45.813Z,75.82
2019-03-23T21:51:16.507Z,76.99
2019-03-23T21:54:08.000Z,76.91
2019-03-23T21:56:41.535Z,76.09
2019-03-23T21:59:11.513Z,76.79
2019-03-23T22:01:43.706Z,76.88
2019-03-23T22:04:17.530Z,76.86
2019-03-23T22:06:48.985Z,76.83
2019-03-23T22:09:24.008Z,77.39
2019-03-23T22:11:58.228Z,77.69
2019-03-23T22:14:41.511Z,77.18
2019-03-23T22:17:05.876Z,77.92
2019-03-23T22:19:36.464Z,77.53
2019-03-23T22:22:12.228Z,77.75
2019-03-23T22:24:39.944Z,77.77
2019-03-23T22:27:19.199Z,78.43
2019-03-23T22:29:50.406Z,77.99
2019-03-23T22:32:21.579Z,78.13
2019-03-23T22:34:52.015Z,79.22
2019-03-23T22:37:24.257Z,78.87
2019-03-23T22:39:59.734Z,79.04
2019-03-23T22:42:30.522Z,79.21
2019-03-23T22:45:01.436Z,79.56
2019-03-23T22:47:34.613Z,79.41
2019-03-23T22:50:10.882Z,78.91
2019-03-23T22:52:43.231Z,79.77
2019-03-23T22:55:11.957Z,79.75
2019-03-23T22:57:46.645Z,80.20
2019-03-23T23:00:32.919Z,80.58
2019-03-23T23:03:04.288Z,80.61
2019-03-23T23:05:34.733Z,81.49
2019-03-23T23:08:04.750Z,81.67
2019-03-23T23:10:35.624Z,81.22
2019-03-23T23:13:13.979Z,80.64
2019-03-23T23:15:45.286Z,81.06
2019-03-23T23:18:18.135Z,81.50
2019-03-23T23:20:49.997Z,80.56
2019-03-23T23:23:20.132Z,81.62
2019-03-23T23:26:04.135Z,81.28
2019-03-23T23:31:18.815Z,82.01
2019-03-23T23:33:50.679Z,81.26
2019-03-23T23:36:21.919Z,81.35
2019-03-23T23:38:53.964Z,81.26
2019-03-23T23:41:30.555Z,81.10
2019-03-23T23:44:10.326Z,81.33
2019-03-23T23:46:46.162Z,81.75
2019-03-23T23:49:22.521Z,81.38
2019-03-23T23:51:56.857Z,81.72
2019-03-23T23:54:27.876Z,82.18
2019-03-23T23:57:03.534Z,82.68
2019-03-23T23:59:36.089Z,83.01
